Pular para o conteúdo principal

Postagens

Mostrando postagens de Fevereiro 6, 2013

"O VOO", QUE RENDEU INDICAÇÃO AO OSCAR PARA DENZEL WASHINGTON, ESTRÉIA SEXTA

div dir="ltr" style="text-align: left;" trbidi="on">
Denzel Washington é Whip Whitaker, piloto alcoólatra que evita uma catástrofe Foto: Paramount / Divulgação
Denzel Washington não ganhará o Oscar – a menos que o imponderável arranque a estatueta de melhor ator de Daniel Day-Lewis, o protagonista de Lincoln consagrado antecipadamente por grande parte da crítica.

Mas O Voo, estreia desta sexta-feira (8/2), reconduz um dos grandes nomes de Hollywood a um trabalho de destaque, depois de um caminho irregular nos últimos anos.

Dirigido por Robert Zemeckis (De Volta para o Futuro, Forrest Gump – O Contador de Histórias e Náufrago), O Voo faz o espectador cravar os dedos na poltrona logo nos primeiros minutos. Denzel vive Whip Whitaker, piloto do avião que realizará o curto trajeto entre Orlando e Atlanta forçado a domar a aeronave que sacode violentamente ao atravessar uma tempestade e sofrer uma pane. Depois de uma sequência …

KING AIR CAI NO ARIZONA, DOIS MORTOS

As autoridades disseram queduaspessoas morreramdepois que umpequeno aviãoregistrado para uma empresaTucsoncaiuno Aeroporto Municipal de Casa Grandeno sul do Arizona.

Funcionários da AdministraçãoFederal de Aviação(FAA) dizem que obimotorBeechcraftKing Aircaiuem torno de11:35 durante manobras de pouso e decolagem.

fonte/TucsonNews

ACIDENTE COM AIRBUS A320 DA TUNIS AIR

 AirbusA320-211,registradoTS-IMB, sofreu danossubstanciaisdurante o pouso noAeroporto Tunis-Carthage(TUN), Tunísia, quandoo trem de pousodo narizentrou em colapso.
O Airbus da TunisAir, vooTU712, deCasablanca-Mohamed V Airport(CMN), Marrocos, paraTunis-CarthageAirport (TUN), pousou as 14:21 local e não houve feridos entre os 75 passageiros e oito tripulantes.

A aeronave pousou durante uma tempestade tropical com vento de rajadas e quando saiu da pista 19 o trem de pouso do nariz colapsou.
Metars:
DTTA 061430Z 28021G31KT 9999 SCT023 FEW030CB BKN086 13/07 Q1006 NOSIG
DTTA 061414Z 28019G31KT 9999 SCT023 FEW030CB BKN086 13/07 Q1006 NOSIG
DTTA 061400Z 30015KT 270V330 9999 SCT023 FEW030CB BKN086 12/08 Q1006 NOSIG
DTTA 061330Z 25016G38KT 220V290 8000 -RA SQ SCT023 BKN086 17/06 Q1007 NOSIG
DTTA 061326Z 26018G39KT 220V290 8000 -RA SQ SCT023 BKN086 14/07 Q1007 NOSIG
DTTA 061324Z 25016G38KT 220V290 9999 -RA SQ SCT023 BKN086 17/06 Q1007 NOSIG
DTTA 061300Z 22013KT 9999 FEW023 SCT086 18/06 Q1006 NOSIG�…